Parry Sound, Canada
Current Conditions -  °F | °C
As of 3:00 PM on Wednesday 26 Nov 2014 (Local Time) from CYQA Reporting Station
Overcast Overcast  
Wind Chill: -1°   Ceiling: 3400
Heat Index: -1°   Visibility: 9mi
Dew Point: -7°   Wind: 2mph
Humidity: 64%   Direction: NA
Pressure: 30.14"   Gusts: NA
Location:  45.34°N, 80.04°W
Report Text: CYQA 262000Z AUTO VRB02KT 9SM OVC034 M01/M07 A3014 RMK SLP221
Loading
Personal Weather Stations






























Interactive Weather Map New forecast layout! Learn more

10-Day Weather Forecast

Advertisements
Track Severe Weather on mobile